createdAt,value
2024-04-19T00:00:28.585Z,4.47
2024-04-19T00:02:31.046Z,4.47
2024-04-19T00:04:33.642Z,4.46
2024-04-19T00:06:35.959Z,4.46
2024-04-19T00:08:38.898Z,4.47
2024-04-19T00:10:41.337Z,4.46
2024-04-19T00:12:43.943Z,4.48
2024-04-19T00:14:46.430Z,4.48
2024-04-19T00:16:49.120Z,4.47
2024-04-19T00:18:52.781Z,4.47
2024-04-19T00:20:56.470Z,4.47
2024-04-19T00:23:00.191Z,4.46
2024-04-19T00:25:02.659Z,4.51
2024-04-19T00:27:05.053Z,4.49
2024-04-19T00:29:22.459Z,4.47
2024-04-19T00:31:26.166Z,4.49
2024-04-19T00:33:28.893Z,4.49
2024-04-19T00:35:32.718Z,4.49
2024-04-19T00:37:35.127Z,4.49
2024-04-19T00:39:57.539Z,4.49
2024-04-19T00:42:00.146Z,4.49
2024-04-19T00:44:02.568Z,4.49
2024-04-19T00:46:05.833Z,4.48
2024-04-19T00:48:17.379Z,4.46
2024-04-19T00:50:33.971Z,4.40
2024-04-19T00:52:36.803Z,4.45
2024-04-19T00:54:41.289Z,4.41
2024-04-19T00:56:47.349Z,4.42
2024-04-19T00:58:50.429Z,4.41
2024-04-19T01:00:53.844Z,4.41
2024-04-19T01:02:57.142Z,4.41
2024-04-19T01:04:59.620Z,4.42
2024-04-19T01:07:03.879Z,4.38
2024-04-19T01:09:06.325Z,4.42
2024-04-19T01:11:08.921Z,4.41
2024-04-19T01:13:12.319Z,4.44
2024-04-19T01:15:19.207Z,4.40
2024-04-19T01:17:21.680Z,4.41
2024-04-19T01:19:24.322Z,4.43
2024-04-19T01:21:27.764Z,4.42
2024-04-19T01:23:30.236Z,4.43
2024-04-19T01:25:38.931Z,4.45
2024-04-19T01:27:41.289Z,4.44
2024-04-19T01:29:43.770Z,4.39
2024-04-19T01:31:46.209Z,4.44
2024-04-19T01:33:48.700Z,4.45
2024-04-19T01:35:51.136Z,4.46
2024-04-19T01:38:13.530Z,4.50
2024-04-19T01:40:15.914Z,4.54
2024-04-19T01:42:18.367Z,4.60
2024-04-19T01:44:37.185Z,4.56
2024-04-19T01:46:39.952Z,4.54
2024-04-19T01:48:42.313Z,4.52
2024-04-19T01:50:44.538Z,4.57
2024-04-19T01:52:46.900Z,4.49
2024-04-19T01:54:50.657Z,4.47
2024-04-19T01:56:59.741Z,4.58
2024-04-19T01:59:04.190Z,4.55
2024-04-19T02:01:06.794Z,4.56
2024-04-19T02:03:09.272Z,4.57
2024-04-19T02:05:11.864Z,4.04
2024-04-19T02:07:15.936Z,4.29
2024-04-19T02:09:18.561Z,4.29
2024-04-19T02:11:21.327Z,4.29
2024-04-19T02:13:23.723Z,4.30
2024-04-19T02:15:26.264Z,4.29
2024-04-19T02:17:28.906Z,4.29
2024-04-19T02:19:36.215Z,4.28
2024-04-19T02:21:40.394Z,4.28
2024-04-19T02:23:43.160Z,4.29
2024-04-19T02:25:45.633Z,4.29
2024-04-19T02:28:08.292Z,4.30
2024-04-19T02:30:29.665Z,4.29
2024-04-19T02:32:32.199Z,4.28
2024-04-19T02:34:34.692Z,4.29
2024-04-19T02:36:37.131Z,4.29
2024-04-19T02:38:39.720Z,4.29
2024-04-19T02:40:43.637Z,4.28
2024-04-19T02:42:46.466Z,4.29
2024-04-19T02:44:48.955Z,4.28
2024-04-19T02:46:51.593Z,4.29
2024-04-19T02:48:54.156Z,4.29
2024-04-19T02:50:57.449Z,4.29
2024-04-19T02:53:00.168Z,4.29
2024-04-19T02:55:05.592Z,4.29
2024-04-19T02:57:08.634Z,4.29
2024-04-19T02:59:11.266Z,4.29
2024-04-19T03:01:13.936Z,4.29
2024-04-19T03:03:16.575Z,4.29
2024-04-19T03:05:21.986Z,4.30
2024-04-19T03:07:24.177Z,4.29
2024-04-19T03:09:26.744Z,4.29
2024-04-19T03:11:29.375Z,4.30
2024-04-19T03:13:31.931Z,4.29
2024-04-19T03:15:34.401Z,4.29
2024-04-19T03:17:37.032Z,4.30
2024-04-19T03:19:39.886Z,4.29
2024-04-19T03:21:44.076Z,4.30
2024-04-19T03:23:46.666Z,4.29
2024-04-19T03:25:51.503Z,4.29
2024-04-19T03:27:53.741Z,4.29
2024-04-19T03:29:56.359Z,4.29
2024-04-19T03:31:58.781Z,4.29
2024-04-19T03:34:01.758Z,4.29
2024-04-19T03:36:08.216Z,4.28
2024-04-19T03:38:14.331Z,4.29
2024-04-19T03:40:16.858Z,4.29
2024-04-19T03:42:20.979Z,4.29
2024-04-19T03:44:43.681Z,4.29
2024-04-19T03:46:46.274Z,4.29
2024-04-19T03:48:48.660Z,4.29
2024-04-19T03:50:51.062Z,4.29
2024-04-19T03:52:54.476Z,4.29
2024-04-19T03:54:56.900Z,4.28
2024-04-19T03:56:59.438Z,4.29
2024-04-19T03:59:02.042Z,4.29
2024-04-19T04:01:07.740Z,4.27
2024-04-19T04:03:10.509Z,4.29
2024-04-19T04:05:16.134Z,4.29
2024-04-19T04:07:18.856Z,4.28
2024-04-19T04:09:21.484Z,4.29
2024-04-19T04:11:24.060Z,4.29
2024-04-19T04:13:29.548Z,4.29
2024-04-19T04:15:32.738Z,4.27
2024-04-19T04:17:35.303Z,4.29
2024-04-19T04:19:37.617Z,4.29
2024-04-19T04:22:00.234Z,4.29
2024-04-19T04:24:02.593Z,4.29
2024-04-19T04:26:05.386Z,4.29
2024-04-19T04:28:08.022Z,4.29
2024-04-19T04:30:10.667Z,4.28
2024-04-19T04:32:13.341Z,4.29
2024-04-19T04:34:17.072Z,4.29
2024-04-19T04:36:39.569Z,4.29
2024-04-19T04:38:42.367Z,4.29
2024-04-19T04:41:05.030Z,4.30
2024-04-19T04:43:08.659Z,4.29
2024-04-19T04:45:11.713Z,4.29
2024-04-19T04:47:14.050Z,4.29
2024-04-19T04:49:16.624Z,4.28
2024-04-19T04:51:19.179Z,4.30
2024-04-19T04:53:21.813Z,4.30
2024-04-19T04:55:24.295Z,4.29
2024-04-19T04:57:26.841Z,4.28
2024-04-19T04:59:29.323Z,4.30
2024-04-19T05:01:31.782Z,4.29
2024-04-19T05:03:34.449Z,4.30
2024-04-19T05:05:38.361Z,4.30
2024-04-19T05:07:40.905Z,4.30
2024-04-19T05:09:43.492Z,4.30
2024-04-19T05:11:46.479Z,4.30
2024-04-19T05:13:49.023Z,4.30
2024-04-19T05:15:52.010Z,4.30
2024-04-19T05:17:54.616Z,4.30
2024-04-19T05:19:57.282Z,4.30
2024-04-19T05:22:00.083Z,4.30
2024-04-19T05:24:02.663Z,4.30
2024-04-19T05:26:05.273Z,4.30
2024-04-19T05:28:09.206Z,4.30
2024-04-19T05:30:11.997Z,4.31
2024-04-19T05:32:14.663Z,4.30
2024-04-19T05:34:17.475Z,4.30
2024-04-19T05:36:20.179Z,4.31
2024-04-19T05:38:22.935Z,4.31
2024-04-19T05:40:26.008Z,4.31
2024-04-19T05:42:29.622Z,4.31
2024-04-19T05:44:33.250Z,4.29
2024-04-19T05:46:35.529Z,4.31
2024-04-19T05:48:38.107Z,4.31
2024-04-19T05:50:40.555Z,4.29
2024-04-19T05:52:43.790Z,4.30
2024-04-19T05:54:46.339Z,4.31
2024-04-19T05:56:49.081Z,4.29
2024-04-19T05:58:51.634Z,4.31
2024-04-19T06:01:55.065Z,4.87
2024-04-19T06:04:11.283Z,4.87
2024-04-19T06:06:16.399Z,4.87
2024-04-19T06:08:38.928Z,4.87
2024-04-19T06:10:41.399Z,4.88
2024-04-19T06:12:44.252Z,4.87
2024-04-19T06:14:46.893Z,4.87
2024-04-19T06:16:49.436Z,4.87
2024-04-19T06:18:52.413Z,4.86
2024-04-19T06:20:54.704Z,4.85
2024-04-19T06:22:59.018Z,4.87
2024-04-19T06:25:01.734Z,4.86
2024-04-19T06:27:04.602Z,4.87
2024-04-19T06:29:07.145Z,4.87
2024-04-19T06:31:14.265Z,4.88
2024-04-19T06:33:17.078Z,4.87
2024-04-19T06:35:19.776Z,4.87
2024-04-19T06:37:22.486Z,4.87
2024-04-19T06:39:28.165Z,4.87
2024-04-19T06:41:31.900Z,4.86
2024-04-19T06:43:35.915Z,4.88
2024-04-19T06:45:38.538Z,4.88
2024-04-19T06:47:42.515Z,4.87
2024-04-19T06:49:46.028Z,4.87
2024-04-19T06:51:49.913Z,4.87
2024-04-19T06:53:52.437Z,4.88
2024-04-19T06:55:54.941Z,4.87
2024-04-19T06:57:57.651Z,4.88
2024-04-19T07:00:10.948Z,4.88
2024-04-19T07:02:22.830Z,4.31
2024-04-19T07:04:26.797Z,4.32
2024-04-19T07:06:50.847Z,4.32
2024-04-19T07:08:53.861Z,4.32
2024-04-19T07:11:00.431Z,4.32
2024-04-19T07:13:03.942Z,4.32
2024-04-19T07:15:07.703Z,4.32
2024-04-19T07:17:10.155Z,4.32
2024-04-19T07:19:14.495Z,4.32
2024-04-19T07:21:17.766Z,4.32
2024-04-19T07:23:23.746Z,4.32
2024-04-19T07:25:29.696Z,4.32
2024-04-19T07:27:39.166Z,4.32
2024-04-19T07:29:46.788Z,4.32
2024-04-19T07:31:49.762Z,4.32
2024-04-19T07:33:52.355Z,4.32
2024-04-19T07:35:55.005Z,4.32
2024-04-19T07:37:57.936Z,4.32
2024-04-19T07:40:00.533Z,4.32
2024-04-19T07:42:03.351Z,4.32
2024-04-19T07:44:05.879Z,4.32
2024-04-19T07:46:08.890Z,4.32
2024-04-19T07:48:11.994Z,4.32
2024-04-19T07:50:15.025Z,4.32
2024-04-19T07:52:17.483Z,4.32
2024-04-19T07:54:20.487Z,4.32
2024-04-19T07:56:24.382Z,4.32
2024-04-19T07:58:26.951Z,4.32
2024-04-19T08:00:29.478Z,4.32
2024-04-19T08:02:31.800Z,4.32
2024-04-19T08:04:34.355Z,4.32
2024-04-19T08:06:39.664Z,4.32
2024-04-19T08:08:42.187Z,4.32
2024-04-19T08:10:44.892Z,4.32
2024-04-19T08:12:47.545Z,4.32
2024-04-19T08:14:50.396Z,4.32
2024-04-19T08:16:52.864Z,4.32
2024-04-19T08:18:57.192Z,4.32
2024-04-19T08:20:59.512Z,4.32
2024-04-19T08:23:25.448Z,4.32
2024-04-19T08:25:27.953Z,4.32
2024-04-19T08:27:30.482Z,4.32
2024-04-19T08:29:35.582Z,4.32
2024-04-19T08:31:41.359Z,4.31
2024-04-19T08:33:43.708Z,4.32
2024-04-19T08:35:56.969Z,4.31
2024-04-19T08:37:59.453Z,4.32
2024-04-19T08:40:02.169Z,4.32
2024-04-19T08:42:09.449Z,4.32
2024-04-19T08:44:11.998Z,4.32
2024-04-19T08:46:16.068Z,4.32
2024-04-19T08:48:18.983Z,4.32
2024-04-19T08:50:22.127Z,4.32
2024-04-19T08:52:49.810Z,4.32
2024-04-19T08:54:51.424Z,4.32
2024-04-19T08:56:54.704Z,4.32
2024-04-19T08:58:59.980Z,4.32
2024-04-19T09:01:02.594Z,4.32
2024-04-19T09:03:06.463Z,4.32
2024-04-19T09:05:09.446Z,4.32
2024-04-19T09:07:12.124Z,4.32
2024-04-19T09:09:15.836Z,4.32
2024-04-19T09:11:18.422Z,4.32
2024-04-19T09:13:20.770Z,4.32
2024-04-19T09:15:27.335Z,4.32
2024-04-19T09:17:31.698Z,4.32
2024-04-19T09:19:35.237Z,4.32
2024-04-19T09:21:37.712Z,4.32
2024-04-19T09:23:39.953Z,4.32
2024-04-19T09:25:42.578Z,4.32
2024-04-19T09:27:46.529Z,4.32
2024-04-19T09:29:52.988Z,4.32
2024-04-19T09:31:56.676Z,4.32
2024-04-19T09:33:59.129Z,4.32
2024-04-19T09:36:01.332Z,4.32
2024-04-19T09:38:04.366Z,4.32
2024-04-19T09:40:07.438Z,4.32
2024-04-19T09:42:10.384Z,4.32
2024-04-19T09:44:15.473Z,4.32
2024-04-19T09:46:25.385Z,4.32
2024-04-19T09:48:31.409Z,4.32
2024-04-19T09:50:38.517Z,4.32
2024-04-19T09:52:43.296Z,4.32
2024-04-19T09:55:07.209Z,4.32
2024-04-19T09:57:11.022Z,4.33
2024-04-19T09:59:15.541Z,4.32
2024-04-19T10:01:19.915Z,4.32
2024-04-19T10:03:24.480Z,4.31
2024-04-19T10:05:29.348Z,4.31
2024-04-19T10:07:32.678Z,4.32
2024-04-19T10:09:35.828Z,4.32
2024-04-19T10:11:39.740Z,4.32
2024-04-19T10:13:42.662Z,4.32
2024-04-19T10:15:48.229Z,4.33
2024-04-19T10:17:50.949Z,4.33
2024-04-19T10:19:55.281Z,4.33
2024-04-19T10:22:00.123Z,4.32
2024-04-19T10:24:16.423Z,4.32
2024-04-19T10:26:22.734Z,4.33
2024-04-19T10:28:28.717Z,4.32
2024-04-19T10:30:36.675Z,4.32
2024-04-19T10:32:39.770Z,4.33
2024-04-19T10:34:42.269Z,4.32
2024-04-19T10:36:48.221Z,4.33
2024-04-19T10:38:50.747Z,4.32
2024-04-19T10:40:53.265Z,4.33
2024-04-19T10:43:06.662Z,4.32
2024-04-19T10:45:15.718Z,4.32
2024-04-19T10:47:20.950Z,4.32
2024-04-19T10:49:24.918Z,4.32
2024-04-19T10:51:28.161Z,4.32
2024-04-19T10:53:30.654Z,4.32
2024-04-19T10:55:34.472Z,4.32
2024-04-19T10:57:37.399Z,4.32
2024-04-19T10:59:39.995Z,4.32
2024-04-19T11:01:43.522Z,4.32
2024-04-19T11:03:48.066Z,4.32
2024-04-19T11:05:51.663Z,4.32
2024-04-19T11:07:54.580Z,4.32
2024-04-19T11:09:57.611Z,4.32
2024-04-19T11:12:01.509Z,4.32
2024-04-19T11:14:10.228Z,4.32
2024-04-19T11:16:12.573Z,4.32
2024-04-19T11:18:15.209Z,4.32
2024-04-19T11:20:19.644Z,4.32
2024-04-19T11:22:23.067Z,4.32
2024-04-19T11:24:26.455Z,4.33
2024-04-19T11:26:28.878Z,4.33
2024-04-19T11:28:31.274Z,4.33
2024-04-19T11:30:38.968Z,4.33
2024-04-19T11:32:41.745Z,4.32
2024-04-19T11:34:46.656Z,4.31
2024-04-19T11:36:51.530Z,4.32
2024-04-19T11:38:56.798Z,4.32
2024-04-19T11:41:18.256Z,4.32
2024-04-19T11:43:22.090Z,4.32
2024-04-19T11:45:25.802Z,4.32
2024-04-19T11:47:28.539Z,4.31
2024-04-19T11:49:31.606Z,4.32
2024-04-19T11:51:34.771Z,4.32
2024-04-19T11:53:37.557Z,4.31
2024-04-19T11:55:40.020Z,4.32
2024-04-19T11:57:43.699Z,4.32
2024-04-19T11:59:46.224Z,4.31
2024-04-19T12:01:50.513Z,4.32
2024-04-19T12:03:53.663Z,4.32
2024-04-19T12:05:56.488Z,4.31
2024-04-19T12:08:00.302Z,4.32
2024-04-19T12:10:03.293Z,4.32
2024-04-19T12:12:51.707Z,4.32
2024-04-19T12:15:22.457Z,4.32
2024-04-19T12:17:04.450Z,4.32
2024-04-19T12:19:13.961Z,4.31
2024-04-19T12:21:16.903Z,4.32
2024-04-19T12:23:20.746Z,4.32
2024-04-19T12:25:24.846Z,4.32
2024-04-19T12:27:28.452Z,4.32
2024-04-19T12:29:31.696Z,4.32
2024-04-19T12:31:35.515Z,4.31
2024-04-19T12:33:38.397Z,4.32
2024-04-19T12:35:40.999Z,4.32
2024-04-19T12:37:43.442Z,4.32
2024-04-19T12:39:45.945Z,4.32
2024-04-19T12:41:48.287Z,4.32
2024-04-19T12:43:51.829Z,4.32
2024-04-19T12:46:14.447Z,4.32
2024-04-19T12:48:17.141Z,4.32
2024-04-19T12:50:19.510Z,4.32
2024-04-19T12:52:22.089Z,4.31
2024-04-19T12:54:24.764Z,4.32
2024-04-19T12:56:27.312Z,4.32
2024-04-19T12:58:30.376Z,4.32
2024-04-19T13:00:33.061Z,4.32
2024-04-19T13:02:35.713Z,4.32
2024-04-19T13:04:38.313Z,4.30
2024-04-19T13:06:40.896Z,4.32
2024-04-19T13:08:43.441Z,4.32
2024-04-19T13:10:47.707Z,4.32
2024-04-19T13:13:52.998Z,4.86
2024-04-19T13:15:55.507Z,4.87
2024-04-19T13:17:58.133Z,4.86
2024-04-19T13:20:00.762Z,4.86
2024-04-19T13:22:03.566Z,4.86
2024-04-19T13:24:06.405Z,4.86
2024-04-19T13:26:09.294Z,4.86
2024-04-19T13:28:13.268Z,4.86
2024-04-19T13:30:16.050Z,4.86
2024-04-19T13:32:18.624Z,4.86
2024-04-19T13:34:23.363Z,4.86
2024-04-19T13:36:25.994Z,4.86
2024-04-19T13:38:28.734Z,4.86
2024-04-19T13:40:31.306Z,4.86
2024-04-19T13:42:35.156Z,4.86
2024-04-19T13:44:37.733Z,4.86
2024-04-19T13:46:40.198Z,4.86
2024-04-19T13:48:42.757Z,4.87
2024-04-19T13:50:45.326Z,4.86
2024-04-19T13:52:49.261Z,4.84
2024-04-19T13:54:51.803Z,4.86
2024-04-19T13:56:54.472Z,4.86
2024-04-19T13:58:58.778Z,4.86
2024-04-19T14:01:01.130Z,4.86
2024-04-19T14:03:04.627Z,4.86
2024-04-19T14:05:08.312Z,4.86
2024-04-19T14:07:10.990Z,4.86
2024-04-19T14:09:15.336Z,4.85
2024-04-19T14:11:17.854Z,4.85
2024-04-19T14:13:20.021Z,4.86
2024-04-19T14:15:22.611Z,4.86
2024-04-19T14:17:26.510Z,4.86
2024-04-19T14:19:28.774Z,4.87
2024-04-19T14:21:31.588Z,4.86
2024-04-19T14:23:34.242Z,4.86
2024-04-19T14:25:38.165Z,4.86
2024-04-19T14:27:43.914Z,4.85
2024-04-19T14:29:47.887Z,4.86
2024-04-19T14:31:50.377Z,4.86
2024-04-19T14:33:52.643Z,4.86
2024-04-19T14:35:55.620Z,4.86
2024-04-19T14:37:58.166Z,4.84
2024-04-19T14:40:00.960Z,4.86
2024-04-19T14:42:04.203Z,4.86
2024-04-19T14:44:06.761Z,4.86
2024-04-19T14:46:10.806Z,4.86
2024-04-19T14:48:17.094Z,4.86
2024-04-19T14:50:23.180Z,4.86
2024-04-19T14:52:25.704Z,4.85
2024-04-19T14:54:28.847Z,4.86
2024-04-19T14:56:31.281Z,4.86
2024-04-19T14:58:33.855Z,4.86
2024-04-19T15:00:36.371Z,4.86
2024-04-19T15:02:39.026Z,4.86
2024-04-19T15:04:41.831Z,4.86
2024-04-19T15:06:46.263Z,4.86
2024-04-19T15:08:49.830Z,4.86
2024-04-19T15:10:52.306Z,4.86
2024-04-19T15:12:54.845Z,4.85
2024-04-19T15:14:58.206Z,4.86
2024-04-19T15:17:01.893Z,4.86
2024-04-19T15:19:04.648Z,4.86
2024-04-19T15:21:07.064Z,4.86
2024-04-19T15:23:09.578Z,4.85
2024-04-19T15:25:12.434Z,4.85
2024-04-19T15:27:14.918Z,4.86
2024-04-19T15:29:17.318Z,4.86
2024-04-19T15:31:20.695Z,4.85
2024-04-19T15:33:23.650Z,4.86
2024-04-19T15:35:27.866Z,4.83
2024-04-19T15:37:30.693Z,4.86
2024-04-19T15:39:33.492Z,4.86
2024-04-19T15:41:41.259Z,4.86
2024-04-19T15:43:50.118Z,4.86
2024-04-19T15:45:52.664Z,4.85
2024-04-19T15:47:55.070Z,4.86
2024-04-19T15:49:57.732Z,4.84
2024-04-19T15:52:00.380Z,4.85
2024-04-19T15:54:03.105Z,4.86
2024-04-19T15:56:07.892Z,4.85
2024-04-19T15:58:10.474Z,4.86
2024-04-19T16:00:15.633Z,4.86
2024-04-19T16:02:18.692Z,4.85
2024-04-19T16:04:21.267Z,4.85
2024-04-19T16:06:23.936Z,4.86
2024-04-19T16:08:26.445Z,4.85
2024-04-19T16:10:28.924Z,4.86
2024-04-19T16:12:31.796Z,4.86
2024-04-19T16:14:34.385Z,4.86
2024-04-19T16:16:38.341Z,4.86
2024-04-19T16:18:41.142Z,4.85
2024-04-19T16:20:46.403Z,4.84
2024-04-19T16:22:48.847Z,4.86
2024-04-19T16:24:51.270Z,4.85
2024-04-19T16:26:54.676Z,4.86
2024-04-19T16:28:57.383Z,4.86
2024-04-19T16:31:00.999Z,4.84
2024-04-19T16:33:04.092Z,4.84
2024-04-19T16:35:06.775Z,4.86
2024-04-19T16:37:09.455Z,4.86
2024-04-19T16:39:12.557Z,4.86
2024-04-19T16:41:16.618Z,4.85
2024-04-19T16:43:19.172Z,4.86
2024-04-19T16:45:24.105Z,4.86
2024-04-19T16:47:27.242Z,4.83
2024-04-19T16:49:31.716Z,4.85
2024-04-19T16:51:35.366Z,4.83
2024-04-19T16:53:38.089Z,4.86
2024-04-19T16:55:41.498Z,4.86
2024-04-19T16:57:45.769Z,4.85
2024-04-19T16:59:48.435Z,4.86
2024-04-19T17:01:51.004Z,4.85
2024-04-19T17:03:53.691Z,4.85
2024-04-19T17:05:56.326Z,4.85
2024-04-19T17:07:58.886Z,4.86
2024-04-19T17:10:01.617Z,4.85
2024-04-19T17:12:06.846Z,4.85
2024-04-19T17:14:09.485Z,4.86
2024-04-19T17:16:12.615Z,4.85
2024-04-19T17:18:15.196Z,4.85
2024-04-19T17:20:18.093Z,4.86
2024-04-19T17:22:20.895Z,4.85
2024-04-19T17:24:23.927Z,4.85
2024-04-19T17:26:28.523Z,4.85
2024-04-19T17:28:30.876Z,4.86
2024-04-19T17:30:37.732Z,4.86
2024-04-19T17:32:40.900Z,4.83
2024-04-19T17:34:43.231Z,4.84
2024-04-19T17:36:46.001Z,4.86
2024-04-19T17:38:48.668Z,4.85
2024-04-19T17:40:51.252Z,4.85
2024-04-19T17:42:54.705Z,4.85
2024-04-19T17:44:57.481Z,4.85
2024-04-19T17:47:00.534Z,4.86
2024-04-19T17:49:06.126Z,4.86
2024-04-19T17:51:10.383Z,4.86
2024-04-19T17:53:15.490Z,4.85
2024-04-19T17:55:18.443Z,4.85
2024-04-19T17:57:21.444Z,4.85
2024-04-19T17:59:24.166Z,4.85
2024-04-19T18:01:29.483Z,4.85
2024-04-19T18:03:33.043Z,4.85
2024-04-19T18:05:36.249Z,4.85
2024-04-19T18:07:39.558Z,4.85
2024-04-19T18:09:42.403Z,4.85
2024-04-19T18:11:45.624Z,4.85
2024-04-19T18:13:48.708Z,4.84
2024-04-19T18:15:52.991Z,4.85
2024-04-19T18:18:02.126Z,4.85
2024-04-19T18:20:06.121Z,4.85
2024-04-19T18:22:09.874Z,4.81
2024-04-19T18:24:13.741Z,4.85
2024-04-19T18:26:17.495Z,4.85
2024-04-19T18:28:20.581Z,4.84
2024-04-19T18:30:23.904Z,4.84
2024-04-19T18:32:28.529Z,4.85
2024-04-19T18:34:31.685Z,4.85
2024-04-19T18:36:34.396Z,4.85
2024-04-19T18:38:37.574Z,4.84
2024-04-19T18:40:45.172Z,4.84
2024-04-19T18:42:48.056Z,4.85
2024-04-19T18:44:51.249Z,4.85
2024-04-19T18:46:54.281Z,4.84
2024-04-19T18:48:58.013Z,4.84
2024-04-19T18:51:02.225Z,4.85
2024-04-19T18:53:05.728Z,4.85
2024-04-19T18:55:10.525Z,4.84
2024-04-19T18:57:36.678Z,4.85
2024-04-19T19:00:03.361Z,4.85
2024-04-19T19:02:27.347Z,4.85
2024-04-19T19:04:50.947Z,4.85
2024-04-19T19:07:16.377Z,4.84
2024-04-19T19:09:40.610Z,4.85
2024-04-19T19:11:44.232Z,4.85
2024-04-19T19:13:49.160Z,4.85
2024-04-19T19:16:00.434Z,4.85
2024-04-19T19:18:04.714Z,4.84
2024-04-19T19:20:14.670Z,4.85
2024-04-19T19:22:18.462Z,4.85
2024-04-19T19:24:21.734Z,4.85
2024-04-19T19:26:25.201Z,4.85
2024-04-19T19:28:27.931Z,4.85
2024-04-19T19:30:31.102Z,4.84
2024-04-19T19:32:34.414Z,4.85
2024-04-19T19:34:38.271Z,4.85
2024-04-19T19:36:42.356Z,4.85
2024-04-19T19:38:47.398Z,4.85
2024-04-19T19:40:50.276Z,4.85
2024-04-19T19:42:53.298Z,4.85
2024-04-19T19:44:57.115Z,4.85
2024-04-19T19:47:00.852Z,4.85
2024-04-19T19:49:06.034Z,4.85
2024-04-19T19:51:08.921Z,4.85
2024-04-19T19:53:12.183Z,4.83
2024-04-19T19:55:15.857Z,4.85
2024-04-19T19:57:39.233Z,4.85
2024-04-19T20:00:00.695Z,4.85
2024-04-19T20:02:22.635Z,4.85
2024-04-19T20:04:44.797Z,4.85
2024-04-19T20:06:50.361Z,4.84
2024-04-19T20:08:53.011Z,4.85
2024-04-19T20:10:57.141Z,4.82
2024-04-19T20:13:00.583Z,4.85
2024-04-19T20:15:04.100Z,4.85
2024-04-19T20:17:07.354Z,4.85
2024-04-19T20:19:09.985Z,4.85
2024-04-19T20:21:14.318Z,4.85
2024-04-19T20:23:17.603Z,4.84
2024-04-19T20:25:21.288Z,4.85
2024-04-19T20:27:24.528Z,4.85
2024-04-19T20:29:29.488Z,4.85
2024-04-19T20:31:33.122Z,4.84
2024-04-19T20:33:37.901Z,4.84
2024-04-19T20:35:40.723Z,4.85
2024-04-19T20:37:43.410Z,4.85
2024-04-19T20:39:46.410Z,4.85
2024-04-19T20:41:48.972Z,4.85
2024-04-19T20:43:51.647Z,4.85
2024-04-19T20:45:56.061Z,4.85
2024-04-19T20:47:59.998Z,4.85
2024-04-19T20:50:14.634Z,4.84
2024-04-19T20:52:17.565Z,4.85
2024-04-19T20:54:20.385Z,4.84
2024-04-19T20:56:25.129Z,4.85
2024-04-19T20:58:29.207Z,4.85
2024-04-19T21:00:36.922Z,4.85
